• Join FlightAware (Why Join?)
  • Login
  • US Flag 
06:01AM EDT


 

Airport Tracker/Info


-or-


 

Live Flight TrackerFlight Track Log ✈ TCF3494 ✈ 22-Apr-2013 ✈ KORD - KLGA

Flight Track Log - Related Links

Times and Time Zones

All times are in EDT time to prevent confusion due to time zone crossing. See the TCF3494 flight status page for this flight to view local times or setup timezone preferences in your user account.

Time Position Orientation Groundspeed Altitude Reporting Facility
EDT Latitude Longitude Course Direction KTS MPH feet Rate Location/Type
06:16PM 41.9333 -87.9000 114° Southeast 176 203 2,000  Level Chicago TRACON
06:17PM 41.9167 -87.8500 114° Southeast 204 235 3,500 2,160 Climbing Chicago TRACON
06:19PM 41.9197 -87.6303 89° East 281 323 9,300 2,580 Climbing Chicago Center
06:20PM 41.9244 -87.5167 87° East 300 345 12,200 2,340 Climbing Chicago Center
06:21PM 41.9294 -87.3947 87° East 323 372 14,200 2,100 Climbing Chicago Center
06:22PM 41.9367 -87.2639 86° East 349 402 16,600 2,340 Climbing Chicago Center
06:23PM 41.9436 -87.0989 87° East 367 422 19,100 2,340 Climbing Chicago Center
06:24PM 41.9475 -86.9575 88° East 378 435 21,500 1,980 Climbing Chicago Center
06:25PM 41.9478 -86.8133 90° East 386 444 23,200 1,680 Climbing Chicago Center
06:26PM 41.9497 -86.6731 89° East 403 464 25,000 1,800 Climbing Chicago Center
06:27PM 41.9531 -86.4964 88° East 395 455 27,000 1,740 Climbing Chicago Center
06:28PM 41.9547 -86.3414 89° East 413 475 28,600 1,320 Climbing Chicago Center
06:29PM 41.9533 -86.1883 91° East 411 473 29,800 1,080 Climbing Chicago Center
06:30PM 41.9386 -86.0319 97° East 420 483 30,900 540 Climbing Chicago Center
06:31PM 41.9233 -85.8683 97° East 438 504 31,000  Climbing Chicago Center
06:32PM 41.9072 -85.7011 97° East 449 517 31,000  Level Chicago Center
06:33PM 41.8875 -85.5006 97° East 448 516 31,000  Level Chicago Center
06:34PM 41.8717 -85.3319 97° East 451 519 31,000  Level Chicago Center
06:35PM 41.8547 -85.1658 98° East 443 510 31,000  Level Chicago Center
06:37PM 41.8383 -85.0000 98° East 446 513 31,000  Level Chicago Center
06:38PM 41.8219 -84.8375 98° East 439 505 31,000  Level Chicago Center
06:39PM 41.8039 -84.6750 98° East 438 504 31,000  Level Chicago Center
06:40PM 41.7836 -84.4708 98° East 443 510 31,000  Level Cleveland Center
06:41PM 41.7764 -84.3117 93° East 437 503 31,000  Level Cleveland Center
06:42PM 41.7753 -84.1500 90° East 432 497 31,000  Level Cleveland Center
06:43PM 41.7717 -83.9883 92° East 432 497 31,000  Level Cleveland Center
06:44PM 41.7703 -83.8239 91° East 432 497 31,000  Level Cleveland Center
06:45PM 41.7706 -83.6625 90° East 432 497 31,000  Level Cleveland Center
06:46PM 41.7644 -83.5008 93° East 437 503 31,000  Level Cleveland Center
06:47PM 41.7475 -83.3386 98° East 444 511 31,000  Level Cleveland Center
06:48PM 41.7306 -83.1736 98° East 444 511 31,000  Level Cleveland Center
06:49PM 41.7153 -83.0117 97° East 444 511 31,000  Level Cleveland Center
06:50PM 41.7000 -82.8497 97° East 444 511 31,000  Level Cleveland Center
06:51PM 41.6819 -82.6906 99° East 444 511 31,000  Level Cleveland Center
06:52PM 41.6661 -82.5317 98° East 439 505 31,000  Level Cleveland Center
06:53PM 41.6500 -82.3672 97° East 439 505 31,000  Level Cleveland Center
06:54PM 41.6356 -82.2194 97° East 439 505 31,000  Level Cleveland Center
06:55PM 41.6169 -82.0608 99° East 439 505 31,000  Level Cleveland Center
06:56PM 41.5961 -81.8825 99° East 439 505 31,000  Level Cleveland Center
06:57PM 41.5811 -81.7294 97° East 429 494 31,000  Level Cleveland Center
06:58PM 41.5639 -81.5767 99° East 424 488 31,000  Level Cleveland Center
06:59PM 41.5461 -81.4211 99° East 424 488 31,000  Level Cleveland Center
07:00PM 41.5286 -81.2656 98° East 424 488 31,000  Level Cleveland Center
07:01PM 41.5106 -81.1128 99° East 424 488 31,000  Level Cleveland Center
07:02PM 41.4986 -80.9769 97° East 424 488 31,000  Level Cleveland Center
07:03PM 41.4844 -80.8186 97° East 424 488 31,000  Level Cleveland Center
07:04PM 41.4722 -80.6636 96° East 424 488 31,000  Level Cleveland Center
07:05PM 41.4575 -80.5111 97° East 424 488 31,000  Level Cleveland Center
07:06PM 41.4450 -80.3617 96° East 419 482 31,000  Level Cleveland Center
07:07PM 41.4300 -80.2064 97° East 419 482 31,000  Level Cleveland Center
07:08PM 41.4167 -80.0514 96° East 419 482 31,000  Level Cleveland Center
07:09PM 41.3969 -79.8744 98° East 425 489 31,000  Level Cleveland Center
07:10PM 41.3814 -79.7114 97° East 436 502 31,000  Level Cleveland Center
07:11PM 41.3675 -79.5594 97° East 449 517 31,000  Level Cleveland Center
07:12PM 41.3514 -79.4019 98° East 442 509 31,000  Level Cleveland Center
07:13PM 41.3306 -79.2200 99° East 442 509 31,000  Level Cleveland Center
07:14PM 41.3142 -79.0572 98° East 442 509 31,000  Level Cleveland Center
07:15PM 41.2994 -78.9081 97° East 449 517 31,000  Level Cleveland Center
07:16PM 41.2825 -78.7456 98° East 449 517 31,000  Level Cleveland Center
07:17PM 41.2650 -78.5803 98° East 444 511 31,000  Level Cleveland Center
07:18PM 41.2450 -78.4014 98° East 444 511 31,000  Level Cleveland Center
07:19PM 41.2206 -78.1944 99° East 435 501 31,000 -360 Level New York Center
07:20PM 41.2017 -78.0294 99° East 441 507 30,200 -900 Descending New York Center
07:21PM 41.1783 -77.8617 100° East 446 513 29,300 -960 Descending New York Center
07:22PM 41.1589 -77.6967 99° East 453 521 28,300 -960 Descending New York Center
07:23PM 41.1372 -77.5292 100° East 453 521 27,400 -960 Descending New York Center
07:24PM 41.1156 -77.3617 100° East 453 521 26,400 -960 Descending New York Center
07:25PM 41.0933 -77.1972 100° East 453 521 25,600 -960 Descending New York Center
07:26PM 41.0728 -77.0356 100° East 453 521 24,600 -1,200 Descending New York Center
07:27PM 41.0517 -76.8794 100° East 443 510 23,200 -1,440 Descending New York Center
07:28PM 41.0303 -76.7261 100° East 433 498 21,800 -1,440 Descending New York Center
07:29PM 41.0003 -76.5778 105° East 427 491 20,400 -1,380 Descending New York Center
07:30PM 40.9658 -76.4292 107° East 421 484 19,100 -1,200 Descending New York Center
07:31PM 40.9328 -76.2892 107° East 408 470 18,100 -600 Descending New York Center
07:32PM 40.9031 -76.1658 108° East 397 457 18,000 -300 Descending New York Center
07:33PM 40.8661 -76.0119 108° East 392 451 17,600 -1,500 Descending New York Center
07:34PM 40.8325 -75.8778 108° East 387 445 15,000 -2,340 Descending New York Center
07:35PM 40.8019 -75.7603 109° East 382 440 13,000 -1,020 Descending New York Center
07:36PM 40.7697 -75.6347 109° East 366 421 13,000  Level New York Center
07:37PM 40.7289 -75.5111 114° Southeast 359 413 13,000 -120 Level New York Center
07:38PM 40.6922 -75.3883 111° Southeast 365 420 12,800 -900 Descending New York Center
07:39PM 40.6531 -75.2681 113° Southeast 357 411 11,200 -1,380 Descending New York Center
07:40PM 40.6119 -75.1394 113° Southeast 352 405 10,100 -600 Descending New York Center
07:41PM 40.5725 -75.0250 114° Southeast 347 399 10,000 -60 Descending New York Center
07:42PM 40.5389 -74.9111 111° Southeast 342 394 10,000  Level New York Center
07:43PM 40.5000 -74.8000 115° Southeast 295 339 10,100  Climbing New York TRACON
07:44PM 40.4833 -74.7000 102° East 295 339 10,000 -720 Descending New York TRACON
07:45PM 40.4500 -74.5833 111° Southeast 287 330 8,700 -960 Descending New York TRACON
07:46PM 40.4333 -74.5000 105° East 278 320 8,100 -360 Descending New York TRACON
07:47PM 40.4333 -74.4167 90° East 238 274 8,100 -480 Level New York TRACON
07:48PM 40.4500 -74.3333 75° East 233 268 7,200 -540 Descending New York TRACON
07:49PM 40.4667 -74.2500 75° East 231 266 7,100 -120 Descending New York TRACON
07:50PM 40.5000 -74.1833 57° Northeast 212 244 7,000 -600 Descending New York TRACON
07:51PM 40.5167 -74.1167 72° East 180 207 5,900 -1,260 Descending New York TRACON
07:52PM 40.5500 -74.0667 49° Northeast 179 206 4,500 -1,380 Descending New York TRACON
07:53PM 40.5833 -74.0333 37° Northeast 180 207 3,300 -660 Descending New York TRACON
07:55PM 40.6667 -73.9667 31° Northeast 168 193 2,700 -540 Descending New York TRACON
07:56PM 40.7000 -73.9333 37° Northeast 162 186 1,700 -1,020 Descending New York TRACON